sensor_id;sensor_type;location;lat;lon;timestamp;temperature;humidity
21061;DHT22;10689;50.836;3.266;2022-10-16T00:01:51;15.00;99.90
21061;DHT22;10689;50.836;3.266;2022-10-16T00:04:17;15.00;99.90
21061;DHT22;10689;50.836;3.266;2022-10-16T00:06:43;15.00;99.90
21061;DHT22;10689;50.836;3.266;2022-10-16T00:09:09;15.00;99.90
21061;DHT22;10689;50.836;3.266;2022-10-16T00:11:38;14.90;99.90
21061;DHT22;10689;50.836;3.266;2022-10-16T00:14:06;14.70;99.90
21061;DHT22;10689;50.836;3.266;2022-10-16T00:16:34;14.70;99.90
21061;DHT22;10689;50.836;3.266;2022-10-16T00:19:00;14.70;99.90
21061;DHT22;10689;50.836;3.266;2022-10-16T00:21:28;14.80;99.90
21061;DHT22;10689;50.836;3.266;2022-10-16T00:23:58;14.80;99.90
21061;DHT22;10689;50.836;3.266;2022-10-16T00:26:25;14.80;99.90
21061;DHT22;10689;50.836;3.266;2022-10-16T00:28:51;14.80;99.90
21061;DHT22;10689;50.836;3.266;2022-10-16T00:31:20;14.80;99.90
21061;DHT22;10689;50.836;3.266;2022-10-16T00:33:46;14.70;99.90
21061;DHT22;10689;50.836;3.266;2022-10-16T00:36:15;14.60;99.90
21061;DHT22;10689;50.836;3.266;2022-10-16T00:38:41;14.70;99.90
21061;DHT22;10689;50.836;3.266;2022-10-16T00:41:09;14.70;99.90
21061;DHT22;10689;50.836;3.266;2022-10-16T00:43:46;14.60;99.90
21061;DHT22;10689;50.836;3.266;2022-10-16T00:46:37;14.70;99.90
21061;DHT22;10689;50.836;3.266;2022-10-16T00:49:12;14.60;99.90
21061;DHT22;10689;50.836;3.266;2022-10-16T00:51:49;14.60;99.90
21061;DHT22;10689;50.836;3.266;2022-10-16T00:56:47;14.40;99.90
21061;DHT22;10689;50.836;3.266;2022-10-16T00:59:19;14.40;99.90
21061;DHT22;10689;50.836;3.266;2022-10-16T01:01:45;14.60;99.90
21061;DHT22;10689;50.836;3.266;2022-10-16T01:04:12;14.60;99.90
21061;DHT22;10689;50.836;3.266;2022-10-16T01:06:52;14.60;99.90
21061;DHT22;10689;50.836;3.266;2022-10-16T01:15:02;14.70;99.90
21061;DHT22;10689;50.836;3.266;2022-10-16T01:17:45;14.70;99.90
21061;DHT22;10689;50.836;3.266;2022-10-16T01:20:28;14.60;99.90
21061;DHT22;10689;50.836;3.266;2022-10-16T01:23:11;14.50;99.90
21061;DHT22;10689;50.836;3.266;2022-10-16T01:28:53;14.60;99.90
21061;DHT22;10689;50.836;3.266;2022-10-16T01:31:19;14.60;99.90
21061;DHT22;10689;50.836;3.266;2022-10-16T01:36:39;14.50;99.90
21061;DHT22;10689;50.836;3.266;2022-10-16T01:39:06;14.60;99.90
21061;DHT22;10689;50.836;3.266;2022-10-16T01:41:39;14.60;99.90
21061;DHT22;10689;50.836;3.266;2022-10-16T01:44:26;14.60;99.90
21061;DHT22;10689;50.836;3.266;2022-10-16T01:46:54;14.60;99.90
21061;DHT22;10689;50.836;3.266;2022-10-16T01:49:22;14.60;99.90
21061;DHT22;10689;50.836;3.266;2022-10-16T01:51:51;14.60;99.90
21061;DHT22;10689;50.836;3.266;2022-10-16T01:54:19;14.50;99.90
21061;DHT22;10689;50.836;3.266;2022-10-16T01:56:46;14.50;99.90
21061;DHT22;10689;50.836;3.266;2022-10-16T01:59:16;14.60;99.90
21061;DHT22;10689;50.836;3.266;2022-10-16T02:01:49;14.60;99.90
21061;DHT22;10689;50.836;3.266;2022-10-16T02:04:27;14.50;99.90
21061;DHT22;10689;50.836;3.266;2022-10-16T02:06:53;14.60;99.90
21061;DHT22;10689;50.836;3.266;2022-10-16T02:09:20;14.60;99.90
21061;DHT22;10689;50.836;3.266;2022-10-16T02:11:46;14.40;99.90
21061;DHT22;10689;50.836;3.266;2022-10-16T02:14:12;14.40;99.90
21061;DHT22;10689;50.836;3.266;2022-10-16T02:16:44;14.40;99.90
21061;DHT22;10689;50.836;3.266;2022-10-16T02:19:11;14.40;99.90
21061;DHT22;10689;50.836;3.266;2022-10-16T02:21:44;14.50;99.90
21061;DHT22;10689;50.836;3.266;2022-10-16T02:24:19;14.40;99.90
21061;DHT22;10689;50.836;3.266;2022-10-16T02:26:48;14.40;99.90
21061;DHT22;10689;50.836;3.266;2022-10-16T02:29:22;14.50;99.90
21061;DHT22;10689;50.836;3.266;2022-10-16T02:31:54;14.40;99.90
21061;DHT22;10689;50.836;3.266;2022-10-16T02:34:22;14.40;99.90
21061;DHT22;10689;50.836;3.266;2022-10-16T02:36:50;14.40;99.90
21061;DHT22;10689;50.836;3.266;2022-10-16T02:39:18;14.40;99.90
21061;DHT22;10689;50.836;3.266;2022-10-16T02:41:44;14.40;99.90
21061;DHT22;10689;50.836;3.266;2022-10-16T02:44:10;14.40;99.90
21061;DHT22;10689;50.836;3.266;2022-10-16T02:46:36;14.50;99.90
21061;DHT22;10689;50.836;3.266;2022-10-16T02:49:01;14.40;99.90
21061;DHT22;10689;50.836;3.266;2022-10-16T02:51:27;14.30;99.90
21061;DHT22;10689;50.836;3.266;2022-10-16T02:53:53;14.30;99.90
21061;DHT22;10689;50.836;3.266;2022-10-16T02:56:19;14.40;99.90
21061;DHT22;10689;50.836;3.266;2022-10-16T02:58:44;14.20;99.90
21061;DHT22;10689;50.836;3.266;2022-10-16T03:01:10;14.10;99.90
21061;DHT22;10689;50.836;3.266;2022-10-16T03:03:38;14.20;99.90
21061;DHT22;10689;50.836;3.266;2022-10-16T03:06:04;14.30;99.90
21061;DHT22;10689;50.836;3.266;2022-10-16T03:08:30;14.40;99.90
21061;DHT22;10689;50.836;3.266;2022-10-16T03:10:56;14.50;99.90
21061;DHT22;10689;50.836;3.266;2022-10-16T03:13:22;14.50;99.90
21061;DHT22;10689;50.836;3.266;2022-10-16T03:15:48;14.40;99.90
21061;DHT22;10689;50.836;3.266;2022-10-16T03:18:13;14.40;99.90
21061;DHT22;10689;50.836;3.266;2022-10-16T03:20:39;14.40;99.90
21061;DHT22;10689;50.836;3.266;2022-10-16T03:23:05;14.20;99.90
21061;DHT22;10689;50.836;3.266;2022-10-16T03:25:33;14.30;99.90
21061;DHT22;10689;50.836;3.266;2022-10-16T03:27:59;14.30;99.90
21061;DHT22;10689;50.836;3.266;2022-10-16T03:30:24;14.30;99.90
21061;DHT22;10689;50.836;3.266;2022-10-16T03:32:50;14.30;99.90
21061;DHT22;10689;50.836;3.266;2022-10-16T03:35:22;14.20;99.90
21061;DHT22;10689;50.836;3.266;2022-10-16T03:37:48;14.10;99.90
21061;DHT22;10689;50.836;3.266;2022-10-16T03:40:15;13.90;99.90
21061;DHT22;10689;50.836;3.266;2022-10-16T03:42:43;14.00;99.90
21061;DHT22;10689;50.836;3.266;2022-10-16T03:45:10;14.10;99.90
21061;DHT22;10689;50.836;3.266;2022-10-16T03:47:36;14.00;99.90
21061;DHT22;10689;50.836;3.266;2022-10-16T03:50:02;14.00;99.90
21061;DHT22;10689;50.836;3.266;2022-10-16T03:52:29;14.10;99.90
21061;DHT22;10689;50.836;3.266;2022-10-16T03:54:54;14.20;99.90
21061;DHT22;10689;50.836;3.266;2022-10-16T03:57:21;14.20;99.90
21061;DHT22;10689;50.836;3.266;2022-10-16T03:59:46;14.20;99.90
21061;DHT22;10689;50.836;3.266;2022-10-16T04:02:13;14.20;99.90
21061;DHT22;10689;50.836;3.266;2022-10-16T04:04:39;14.10;99.90
21061;DHT22;10689;50.836;3.266;2022-10-16T04:07:04;14.10;99.90
21061;DHT22;10689;50.836;3.266;2022-10-16T04:09:30;14.00;99.90
21061;DHT22;10689;50.836;3.266;2022-10-16T04:11:56;14.00;99.90
21061;DHT22;10689;50.836;3.266;2022-10-16T04:14:22;13.90;99.90
21061;DHT22;10689;50.836;3.266;2022-10-16T04:16:47;13.90;99.90
21061;DHT22;10689;50.836;3.266;2022-10-16T04:19:15;14.00;99.90
21061;DHT22;10689;50.836;3.266;2022-10-16T04:21:41;13.90;99.90
21061;DHT22;10689;50.836;3.266;2022-10-16T04:24:07;13.90;99.90
21061;DHT22;10689;50.836;3.266;2022-10-16T04:26:33;13.90;99.90
21061;DHT22;10689;50.836;3.266;2022-10-16T04:28:59;13.90;99.90
21061;DHT22;10689;50.836;3.266;2022-10-16T04:31:25;13.90;99.90
21061;DHT22;10689;50.836;3.266;2022-10-16T04:33:51;13.90;99.90
21061;DHT22;10689;50.836;3.266;2022-10-16T04:36:17;13.90;99.90
21061;DHT22;10689;50.836;3.266;2022-10-16T04:38:42;13.90;99.90
21061;DHT22;10689;50.836;3.266;2022-10-16T04:41:08;13.80;99.90
21061;DHT22;10689;50.836;3.266;2022-10-16T04:43:34;13.90;99.90
21061;DHT22;10689;50.836;3.266;2022-10-16T04:46:00;13.90;99.90
21061;DHT22;10689;50.836;3.266;2022-10-16T04:48:26;13.90;99.90
21061;DHT22;10689;50.836;3.266;2022-10-16T04:50:52;13.80;99.90
21061;DHT22;10689;50.836;3.266;2022-10-16T04:53:17;13.80;99.90
21061;DHT22;10689;50.836;3.266;2022-10-16T04:55:43;13.80;99.90
21061;DHT22;10689;50.836;3.266;2022-10-16T04:58:09;13.90;99.90
21061;DHT22;10689;50.836;3.266;2022-10-16T05:00:35;14.00;99.90
21061;DHT22;10689;50.836;3.266;2022-10-16T05:03:03;13.90;99.90
21061;DHT22;10689;50.836;3.266;2022-10-16T05:05:33;14.10;99.90
21061;DHT22;10689;50.836;3.266;2022-10-16T05:07:59;14.10;99.90
21061;DHT22;10689;50.836;3.266;2022-10-16T05:10:25;14.30;99.90
21061;DHT22;10689;50.836;3.266;2022-10-16T05:12:51;14.30;99.90
21061;DHT22;10689;50.836;3.266;2022-10-16T05:15:17;14.40;99.90
21061;DHT22;10689;50.836;3.266;2022-10-16T05:17:43;14.30;99.90
21061;DHT22;10689;50.836;3.266;2022-10-16T05:20:09;14.40;99.90
21061;DHT22;10689;50.836;3.266;2022-10-16T05:22:35;14.30;99.90
21061;DHT22;10689;50.836;3.266;2022-10-16T05:25:01;14.30;99.90
21061;DHT22;10689;50.836;3.266;2022-10-16T05:27:27;14.30;99.90
21061;DHT22;10689;50.836;3.266;2022-10-16T05:29:52;14.30;99.90
21061;DHT22;10689;50.836;3.266;2022-10-16T05:32:18;14.30;99.90
21061;DHT22;10689;50.836;3.266;2022-10-16T05:34:45;14.30;99.90
21061;DHT22;10689;50.836;3.266;2022-10-16T05:37:11;14.40;99.90
21061;DHT22;10689;50.836;3.266;2022-10-16T05:39:38;14.20;99.90
21061;DHT22;10689;50.836;3.266;2022-10-16T05:42:05;14.50;99.90
21061;DHT22;10689;50.836;3.266;2022-10-16T05:44:31;14.50;99.90
21061;DHT22;10689;50.836;3.266;2022-10-16T05:46:57;14.50;99.90
21061;DHT22;10689;50.836;3.266;2022-10-16T05:49:23;14.50;99.90
21061;DHT22;10689;50.836;3.266;2022-10-16T05:51:50;14.40;99.90
21061;DHT22;10689;50.836;3.266;2022-10-16T05:54:15;14.30;99.90
21061;DHT22;10689;50.836;3.266;2022-10-16T05:56:41;14.30;99.90
21061;DHT22;10689;50.836;3.266;2022-10-16T05:59:07;14.30;99.90
21061;DHT22;10689;50.836;3.266;2022-10-16T06:01:33;14.30;99.90
21061;DHT22;10689;50.836;3.266;2022-10-16T06:03:59;14.30;99.90
21061;DHT22;10689;50.836;3.266;2022-10-16T06:06:27;14.20;99.90
21061;DHT22;10689;50.836;3.266;2022-10-16T06:08:54;14.10;99.90
21061;DHT22;10689;50.836;3.266;2022-10-16T06:11:25;13.90;99.90
21061;DHT22;10689;50.836;3.266;2022-10-16T06:13:56;13.90;99.90
21061;DHT22;10689;50.836;3.266;2022-10-16T06:16:23;14.00;99.90
21061;DHT22;10689;50.836;3.266;2022-10-16T06:18:51;13.90;99.90
21061;DHT22;10689;50.836;3.266;2022-10-16T06:21:21;13.90;99.90
21061;DHT22;10689;50.836;3.266;2022-10-16T06:23:48;13.90;99.90
21061;DHT22;10689;50.836;3.266;2022-10-16T06:26:19;13.80;99.90
21061;DHT22;10689;50.836;3.266;2022-10-16T06:28:46;13.80;99.90
21061;DHT22;10689;50.836;3.266;2022-10-16T06:31:13;13.90;99.90
21061;DHT22;10689;50.836;3.266;2022-10-16T06:33:39;13.80;99.90
21061;DHT22;10689;50.836;3.266;2022-10-16T06:36:14;13.80;99.90
21061;DHT22;10689;50.836;3.266;2022-10-16T06:38:40;13.70;99.90
21061;DHT22;10689;50.836;3.266;2022-10-16T06:41:08;13.70;99.90
21061;DHT22;10689;50.836;3.266;2022-10-16T06:43:35;13.80;99.90
21061;DHT22;10689;50.836;3.266;2022-10-16T06:46:02;13.80;99.90
21061;DHT22;10689;50.836;3.266;2022-10-16T06:48:29;13.90;99.90
21061;DHT22;10689;50.836;3.266;2022-10-16T06:51:06;13.90;99.90
21061;DHT22;10689;50.836;3.266;2022-10-16T06:53:34;14.00;99.90
21061;DHT22;10689;50.836;3.266;2022-10-16T06:56:14;13.90;99.90
21061;DHT22;10689;50.836;3.266;2022-10-16T06:58:40;13.90;99.90
21061;DHT22;10689;50.836;3.266;2022-10-16T07:01:07;13.90;99.90
21061;DHT22;10689;50.836;3.266;2022-10-16T07:03:35;14.10;99.90
21061;DHT22;10689;50.836;3.266;2022-10-16T07:06:03;14.20;99.90
21061;DHT22;10689;50.836;3.266;2022-10-16T07:08:32;14.30;99.90
21061;DHT22;10689;50.836;3.266;2022-10-16T07:11:04;14.10;99.90
21061;DHT22;10689;50.836;3.266;2022-10-16T07:13:32;14.00;99.90
21061;DHT22;10689;50.836;3.266;2022-10-16T07:16:13;14.10;99.90
21061;DHT22;10689;50.836;3.266;2022-10-16T07:18:40;14.20;99.90
21061;DHT22;10689;50.836;3.266;2022-10-16T07:21:09;14.20;99.90
21061;DHT22;10689;50.836;3.266;2022-10-16T07:23:35;14.40;99.90
21061;DHT22;10689;50.836;3.266;2022-10-16T07:26:01;14.40;99.90
21061;DHT22;10689;50.836;3.266;2022-10-16T07:28:28;14.30;99.90
21061;DHT22;10689;50.836;3.266;2022-10-16T07:30:55;14.30;99.90
21061;DHT22;10689;50.836;3.266;2022-10-16T07:33:21;14.30;99.90
21061;DHT22;10689;50.836;3.266;2022-10-16T07:35:54;14.50;99.90
21061;DHT22;10689;50.836;3.266;2022-10-16T07:38:21;14.60;99.90
21061;DHT22;10689;50.836;3.266;2022-10-16T07:40:47;14.80;99.90
21061;DHT22;10689;50.836;3.266;2022-10-16T07:43:14;14.80;99.90
21061;DHT22;10689;50.836;3.266;2022-10-16T07:45:48;14.80;99.90
21061;DHT22;10689;50.836;3.266;2022-10-16T07:48:15;14.90;99.90
21061;DHT22;10689;50.836;3.266;2022-10-16T07:50:41;15.10;99.90
21061;DHT22;10689;50.836;3.266;2022-10-16T07:53:08;15.10;99.90
21061;DHT22;10689;50.836;3.266;2022-10-16T07:55:33;15.20;99.90
21061;DHT22;10689;50.836;3.266;2022-10-16T07:57:59;15.30;99.90
21061;DHT22;10689;50.836;3.266;2022-10-16T08:00:27;15.50;99.90
21061;DHT22;10689;50.836;3.266;2022-10-16T08:02:53;15.50;99.90
21061;DHT22;10689;50.836;3.266;2022-10-16T08:05:19;15.60;99.90
21061;DHT22;10689;50.836;3.266;2022-10-16T08:07:51;15.60;99.90
21061;DHT22;10689;50.836;3.266;2022-10-16T08:10:19;15.70;99.90
21061;DHT22;10689;50.836;3.266;2022-10-16T08:12:45;15.90;99.90
21061;DHT22;10689;50.836;3.266;2022-10-16T08:15:11;15.90;99.90
21061;DHT22;10689;50.836;3.266;2022-10-16T08:17:37;15.80;99.90
21061;DHT22;10689;50.836;3.266;2022-10-16T08:20:03;15.80;99.90
21061;DHT22;10689;50.836;3.266;2022-10-16T08:22:29;15.90;99.90
21061;DHT22;10689;50.836;3.266;2022-10-16T08:24:56;15.80;99.90
21061;DHT22;10689;50.836;3.266;2022-10-16T08:27:22;15.90;99.90
21061;DHT22;10689;50.836;3.266;2022-10-16T08:29:48;16.00;99.90
21061;DHT22;10689;50.836;3.266;2022-10-16T08:32:15;16.00;99.90
21061;DHT22;10689;50.836;3.266;2022-10-16T08:34:41;16.00;99.90
21061;DHT22;10689;50.836;3.266;2022-10-16T08:37:07;16.00;99.90
21061;DHT22;10689;50.836;3.266;2022-10-16T08:39:33;16.10;99.90
21061;DHT22;10689;50.836;3.266;2022-10-16T08:42:19;16.10;99.90
21061;DHT22;10689;50.836;3.266;2022-10-16T08:47:26;16.10;99.90
21061;DHT22;10689;50.836;3.266;2022-10-16T08:49:58;16.00;99.90
21061;DHT22;10689;50.836;3.266;2022-10-16T08:52:29;16.20;99.90
21061;DHT22;10689;50.836;3.266;2022-10-16T08:54:56;16.30;99.90
21061;DHT22;10689;50.836;3.266;2022-10-16T08:57:24;16.30;99.90
21061;DHT22;10689;50.836;3.266;2022-10-16T08:59:52;16.30;99.90
21061;DHT22;10689;50.836;3.266;2022-10-16T09:02:35;16.40;99.90
21061;DHT22;10689;50.836;3.266;2022-10-16T09:05:23;16.50;99.90
21061;DHT22;10689;50.836;3.266;2022-10-16T09:16:01;16.70;99.90
21061;DHT22;10689;50.836;3.266;2022-10-16T09:18:54;16.80;99.90
21061;DHT22;10689;50.836;3.266;2022-10-16T09:21:30;16.80;99.90
21061;DHT22;10689;50.836;3.266;2022-10-16T09:23:59;16.80;99.90
21061;DHT22;10689;50.836;3.266;2022-10-16T09:26:29;16.80;99.90
21061;DHT22;10689;50.836;3.266;2022-10-16T09:28:55;16.80;99.90
21061;DHT22;10689;50.836;3.266;2022-10-16T09:31:22;16.70;99.90
21061;DHT22;10689;50.836;3.266;2022-10-16T09:33:58;16.80;99.90
21061;DHT22;10689;50.836;3.266;2022-10-16T09:36:26;17.00;99.90
21061;DHT22;10689;50.836;3.266;2022-10-16T09:39:07;17.10;99.90
21061;DHT22;10689;50.836;3.266;2022-10-16T09:41:36;17.20;99.90
21061;DHT22;10689;50.836;3.266;2022-10-16T09:44:06;17.40;99.90
21061;DHT22;10689;50.836;3.266;2022-10-16T09:46:41;17.50;99.90
21061;DHT22;10689;50.836;3.266;2022-10-16T09:49:25;17.70;99.90
21061;DHT22;10689;50.836;3.266;2022-10-16T09:52:03;17.70;99.90
21061;DHT22;10689;50.836;3.266;2022-10-16T09:54:29;17.80;99.90
21061;DHT22;10689;50.836;3.266;2022-10-16T09:57:05;17.90;99.90
21061;DHT22;10689;50.836;3.266;2022-10-16T09:59:31;18.00;99.90
21061;DHT22;10689;50.836;3.266;2022-10-16T10:02:02;18.10;99.90
21061;DHT22;10689;50.836;3.266;2022-10-16T10:04:41;18.20;99.90
21061;DHT22;10689;50.836;3.266;2022-10-16T10:07:37;18.30;99.90
21061;DHT22;10689;50.836;3.266;2022-10-16T10:10:05;18.40;99.90
21061;DHT22;10689;50.836;3.266;2022-10-16T10:12:35;18.60;99.90
21061;DHT22;10689;50.836;3.266;2022-10-16T10:15:11;18.60;99.90
21061;DHT22;10689;50.836;3.266;2022-10-16T10:17:55;18.80;99.90
21061;DHT22;10689;50.836;3.266;2022-10-16T10:20:32;18.90;99.90
21061;DHT22;10689;50.836;3.266;2022-10-16T10:23:01;18.90;99.90
21061;DHT22;10689;50.836;3.266;2022-10-16T10:31:14;19.40;99.90
21061;DHT22;10689;50.836;3.266;2022-10-16T10:34:05;19.60;99.90
21061;DHT22;10689;50.836;3.266;2022-10-16T10:36:39;19.70;99.90
21061;DHT22;10689;50.836;3.266;2022-10-16T10:39:37;19.80;99.90
21061;DHT22;10689;50.836;3.266;2022-10-16T10:42:28;19.70;99.90
21061;DHT22;10689;50.836;3.266;2022-10-16T10:45:20;19.80;99.90
21061;DHT22;10689;50.836;3.266;2022-10-16T10:48:16;20.10;99.90
21061;DHT22;10689;50.836;3.266;2022-10-16T10:58:55;20.80;99.90
21061;DHT22;10689;50.836;3.266;2022-10-16T11:01:53;20.70;99.90
21061;DHT22;10689;50.836;3.266;2022-10-16T11:07:26;20.40;99.90
21061;DHT22;10689;50.836;3.266;2022-10-16T11:10:18;20.10;99.90
21061;DHT22;10689;50.836;3.266;2022-10-16T11:12:55;19.90;99.90
21061;DHT22;10689;50.836;3.266;2022-10-16T11:15:29;19.90;99.90
21061;DHT22;10689;50.836;3.266;2022-10-16T11:20:30;19.90;99.90
21061;DHT22;10689;50.836;3.266;2022-10-16T11:23:14;20.00;99.90
21061;DHT22;10689;50.836;3.266;2022-10-16T11:25:45;20.20;99.90
21061;DHT22;10689;50.836;3.266;2022-10-16T11:30:51;21.00;99.90
21061;DHT22;10689;50.836;3.266;2022-10-16T11:38:47;21.00;99.90
21061;DHT22;10689;50.836;3.266;2022-10-16T11:41:37;20.90;99.90
21061;DHT22;10689;50.836;3.266;2022-10-16T11:47:01;21.50;99.90
21061;DHT22;10689;50.836;3.266;2022-10-16T11:49:28;21.80;99.90
21061;DHT22;10689;50.836;3.266;2022-10-16T11:56:57;22.30;99.90
21061;DHT22;10689;50.836;3.266;2022-10-16T12:02:33;22.30;99.90
21061;DHT22;10689;50.836;3.266;2022-10-16T12:10:35;21.90;99.90
21061;DHT22;10689;50.836;3.266;2022-10-16T12:16:20;21.60;99.90
21061;DHT22;10689;50.836;3.266;2022-10-16T12:18:47;21.70;99.90
21061;DHT22;10689;50.836;3.266;2022-10-16T12:21:15;21.80;99.90
21061;DHT22;10689;50.836;3.266;2022-10-16T12:23:52;22.10;99.90
21061;DHT22;10689;50.836;3.266;2022-10-16T12:26:32;22.10;99.90
21061;DHT22;10689;50.836;3.266;2022-10-16T12:29:19;22.00;99.90
21061;DHT22;10689;50.836;3.266;2022-10-16T12:31:48;21.90;99.90
21061;DHT22;10689;50.836;3.266;2022-10-16T12:36:54;21.30;99.90
21061;DHT22;10689;50.836;3.266;2022-10-16T12:39:23;21.30;99.90
21061;DHT22;10689;50.836;3.266;2022-10-16T12:42:03;21.60;99.90
21061;DHT22;10689;50.836;3.266;2022-10-16T12:44:35;22.10;99.90
21061;DHT22;10689;50.836;3.266;2022-10-16T12:47:01;22.30;99.90
21061;DHT22;10689;50.836;3.266;2022-10-16T12:49:36;22.60;99.90
21061;DHT22;10689;50.836;3.266;2022-10-16T12:52:03;22.60;99.90
21061;DHT22;10689;50.836;3.266;2022-10-16T12:54:37;22.50;99.90
21061;DHT22;10689;50.836;3.266;2022-10-16T12:59:53;22.10;99.90
21061;DHT22;10689;50.836;3.266;2022-10-16T13:16:59;21.90;99.90
21061;DHT22;10689;50.836;3.266;2022-10-16T13:22:38;22.20;99.90
21061;DHT22;10689;50.836;3.266;2022-10-16T13:28:10;21.90;99.90
21061;DHT22;10689;50.836;3.266;2022-10-16T13:30:42;21.80;99.90
21061;DHT22;10689;50.836;3.266;2022-10-16T13:33:17;21.60;99.90
21061;DHT22;10689;50.836;3.266;2022-10-16T13:35:53;21.50;99.90
21061;DHT22;10689;50.836;3.266;2022-10-16T13:38:22;21.30;99.90
21061;DHT22;10689;50.836;3.266;2022-10-16T13:43:35;20.90;99.90
21061;DHT22;10689;50.836;3.266;2022-10-16T13:46:04;21.00;99.90
21061;DHT22;10689;50.836;3.266;2022-10-16T13:48:31;21.00;99.90
21061;DHT22;10689;50.836;3.266;2022-10-16T13:51:11;21.00;99.90
21061;DHT22;10689;50.836;3.266;2022-10-16T13:53:37;21.00;99.90
21061;DHT22;10689;50.836;3.266;2022-10-16T13:56:05;21.10;99.90
21061;DHT22;10689;50.836;3.266;2022-10-16T13:58:32;21.20;99.90
21061;DHT22;10689;50.836;3.266;2022-10-16T14:01:18;21.40;99.90
21061;DHT22;10689;50.836;3.266;2022-10-16T14:03:45;21.50;99.90
21061;DHT22;10689;50.836;3.266;2022-10-16T14:06:14;21.60;99.90
21061;DHT22;10689;50.836;3.266;2022-10-16T14:09:02;21.70;99.90
21061;DHT22;10689;50.836;3.266;2022-10-16T14:11:30;21.70;99.90
21061;DHT22;10689;50.836;3.266;2022-10-16T14:13:56;21.70;99.90
21061;DHT22;10689;50.836;3.266;2022-10-16T14:16:27;21.60;99.90
21061;DHT22;10689;50.836;3.266;2022-10-16T14:19:03;21.30;99.90
21061;DHT22;10689;50.836;3.266;2022-10-16T14:21:31;21.10;99.90
21061;DHT22;10689;50.836;3.266;2022-10-16T14:23:58;20.90;99.90
21061;DHT22;10689;50.836;3.266;2022-10-16T14:26:26;20.50;99.90
21061;DHT22;10689;50.836;3.266;2022-10-16T14:29:11;20.50;99.90
21061;DHT22;10689;50.836;3.266;2022-10-16T14:31:37;20.40;99.90
21061;DHT22;10689;50.836;3.266;2022-10-16T14:34:29;20.40;99.90
21061;DHT22;10689;50.836;3.266;2022-10-16T14:36:59;20.30;99.90
21061;DHT22;10689;50.836;3.266;2022-10-16T14:39:26;20.40;99.90
21061;DHT22;10689;50.836;3.266;2022-10-16T14:41:55;20.40;99.90
21061;DHT22;10689;50.836;3.266;2022-10-16T14:44:29;20.40;99.90
21061;DHT22;10689;50.836;3.266;2022-10-16T14:46:57;20.30;99.90
21061;DHT22;10689;50.836;3.266;2022-10-16T14:49:23;20.20;99.90
21061;DHT22;10689;50.836;3.266;2022-10-16T14:51:49;20.30;99.90
21061;DHT22;10689;50.836;3.266;2022-10-16T14:54:18;20.30;99.90
21061;DHT22;10689;50.836;3.266;2022-10-16T14:56:47;20.40;99.90
21061;DHT22;10689;50.836;3.266;2022-10-16T14:59:21;20.30;99.90
21061;DHT22;10689;50.836;3.266;2022-10-16T15:01:50;20.40;99.90
21061;DHT22;10689;50.836;3.266;2022-10-16T15:04:16;20.40;99.90
21061;DHT22;10689;50.836;3.266;2022-10-16T15:06:43;20.40;99.90
21061;DHT22;10689;50.836;3.266;2022-10-16T15:09:08;20.30;99.90
21061;DHT22;10689;50.836;3.266;2022-10-16T15:11:34;20.30;99.90
21061;DHT22;10689;50.836;3.266;2022-10-16T15:14:00;20.30;99.90
21061;DHT22;10689;50.836;3.266;2022-10-16T15:16:26;20.20;99.90
21061;DHT22;10689;50.836;3.266;2022-10-16T15:18:51;20.20;99.90
21061;DHT22;10689;50.836;3.266;2022-10-16T15:21:28;20.30;99.90
21061;DHT22;10689;50.836;3.266;2022-10-16T15:23:54;20.20;99.90
21061;DHT22;10689;50.836;3.266;2022-10-16T15:26:22;20.20;99.90
21061;DHT22;10689;50.836;3.266;2022-10-16T15:28:48;19.90;99.90
21061;DHT22;10689;50.836;3.266;2022-10-16T15:31:14;19.80;99.90
21061;DHT22;10689;50.836;3.266;2022-10-16T15:33:39;19.70;99.90
21061;DHT22;10689;50.836;3.266;2022-10-16T15:36:06;19.80;99.90
21061;DHT22;10689;50.836;3.266;2022-10-16T15:38:31;19.80;99.90
21061;DHT22;10689;50.836;3.266;2022-10-16T15:40:58;19.60;99.90
21061;DHT22;10689;50.836;3.266;2022-10-16T15:43:24;19.60;99.90
21061;DHT22;10689;50.836;3.266;2022-10-16T15:46:03;19.50;99.90
21061;DHT22;10689;50.836;3.266;2022-10-16T15:48:30;19.50;99.90
21061;DHT22;10689;50.836;3.266;2022-10-16T15:50:56;19.40;99.90
21061;DHT22;10689;50.836;3.266;2022-10-16T15:53:22;19.40;99.90
21061;DHT22;10689;50.836;3.266;2022-10-16T15:55:48;19.30;99.90
21061;DHT22;10689;50.836;3.266;2022-10-16T15:58:14;19.30;99.90
21061;DHT22;10689;50.836;3.266;2022-10-16T16:00:40;19.40;99.90
21061;DHT22;10689;50.836;3.266;2022-10-16T16:03:06;19.40;99.90
21061;DHT22;10689;50.836;3.266;2022-10-16T16:05:31;19.40;99.90
21061;DHT22;10689;50.836;3.266;2022-10-16T16:07:59;19.30;99.90
21061;DHT22;10689;50.836;3.266;2022-10-16T16:10:25;19.20;99.90
21061;DHT22;10689;50.836;3.266;2022-10-16T16:12:50;19.20;99.90
21061;DHT22;10689;50.836;3.266;2022-10-16T16:15:20;19.20;99.90
21061;DHT22;10689;50.836;3.266;2022-10-16T16:17:46;19.20;99.90
21061;DHT22;10689;50.836;3.266;2022-10-16T16:20:13;19.10;99.90
21061;DHT22;10689;50.836;3.266;2022-10-16T16:22:40;19.10;99.90
21061;DHT22;10689;50.836;3.266;2022-10-16T16:25:07;19.10;99.90
21061;DHT22;10689;50.836;3.266;2022-10-16T16:27:33;19.00;99.90
21061;DHT22;10689;50.836;3.266;2022-10-16T16:30:00;18.90;99.90
21061;DHT22;10689;50.836;3.266;2022-10-16T16:32:28;18.80;99.90
21061;DHT22;10689;50.836;3.266;2022-10-16T16:34:53;18.80;99.90
21061;DHT22;10689;50.836;3.266;2022-10-16T16:37:19;18.80;99.90
21061;DHT22;10689;50.836;3.266;2022-10-16T16:39:44;18.90;99.90
21061;DHT22;10689;50.836;3.266;2022-10-16T16:42:10;18.80;99.90
21061;DHT22;10689;50.836;3.266;2022-10-16T16:44:36;18.80;99.90
21061;DHT22;10689;50.836;3.266;2022-10-16T16:47:03;18.80;99.90
21061;DHT22;10689;50.836;3.266;2022-10-16T16:49:29;18.80;99.90
21061;DHT22;10689;50.836;3.266;2022-10-16T16:51:55;18.70;99.90
21061;DHT22;10689;50.836;3.266;2022-10-16T16:54:21;18.60;99.90
21061;DHT22;10689;50.836;3.266;2022-10-16T16:56:46;18.50;99.90
21061;DHT22;10689;50.836;3.266;2022-10-16T16:59:14;18.50;99.90
21061;DHT22;10689;50.836;3.266;2022-10-16T17:01:40;18.40;99.90
21061;DHT22;10689;50.836;3.266;2022-10-16T17:04:06;18.30;99.90
21061;DHT22;10689;50.836;3.266;2022-10-16T17:06:32;18.30;99.90
21061;DHT22;10689;50.836;3.266;2022-10-16T17:09:00;18.30;99.90
21061;DHT22;10689;50.836;3.266;2022-10-16T17:11:27;18.30;99.90
21061;DHT22;10689;50.836;3.266;2022-10-16T17:13:57;18.40;99.90
21061;DHT22;10689;50.836;3.266;2022-10-16T17:16:32;18.20;99.90
21061;DHT22;10689;50.836;3.266;2022-10-16T17:19:03;18.00;99.90
21061;DHT22;10689;50.836;3.266;2022-10-16T17:21:29;17.90;99.90
21061;DHT22;10689;50.836;3.266;2022-10-16T17:23:57;17.80;99.90
21061;DHT22;10689;50.836;3.266;2022-10-16T17:26:23;17.70;99.90